sensor_id;sensor_type;location;lat;lon;timestamp;P1;durP1;ratioP1;P2;durP2;ratioP2
77451;SDS011;66537;52.370;4.832;2023-04-03T00:01:44;6.90;;;0.80;;
77451;SDS011;66537;52.370;4.832;2023-04-03T00:04:10;5.63;;;0.93;;
77451;SDS011;66537;52.370;4.832;2023-04-03T00:06:35;4.23;;;1.03;;
77451;SDS011;66537;52.370;4.832;2023-04-03T00:09:01;3.60;;;0.60;;
77451;SDS011;66537;52.370;4.832;2023-04-03T00:11:26;4.10;;;0.82;;
77451;SDS011;66537;52.370;4.832;2023-04-03T00:13:51;4.43;;;0.70;;
77451;SDS011;66537;52.370;4.832;2023-04-03T00:16:17;3.55;;;0.68;;
77451;SDS011;66537;52.370;4.832;2023-04-03T00:18:43;4.15;;;0.80;;
77451;SDS011;66537;52.370;4.832;2023-04-03T00:21:09;4.70;;;0.68;;
77451;SDS011;66537;52.370;4.832;2023-04-03T00:23:37;3.75;;;0.80;;
77451;SDS011;66537;52.370;4.832;2023-04-03T00:26:02;5.10;;;0.77;;
77451;SDS011;66537;52.370;4.832;2023-04-03T00:28:27;4.38;;;0.50;;
77451;SDS011;66537;52.370;4.832;2023-04-03T00:30:53;4.57;;;0.63;;
77451;SDS011;66537;52.370;4.832;2023-04-03T00:33:18;4.00;;;0.80;;
77451;SDS011;66537;52.370;4.832;2023-04-03T00:35:46;3.35;;;0.70;;
77451;SDS011;66537;52.370;4.832;2023-04-03T00:38:13;4.30;;;0.70;;
77451;SDS011;66537;52.370;4.832;2023-04-03T00:40:39;4.05;;;0.60;;
77451;SDS011;66537;52.370;4.832;2023-04-03T00:43:11;3.95;;;0.50;;
77451;SDS011;66537;52.370;4.832;2023-04-03T00:45:41;4.07;;;0.73;;
77451;SDS011;66537;52.370;4.832;2023-04-03T00:48:14;5.03;;;0.75;;
77451;SDS011;66537;52.370;4.832;2023-04-03T00:50:43;5.35;;;0.85;;
77451;SDS011;66537;52.370;4.832;2023-04-03T00:53:16;5.15;;;0.50;;
77451;SDS011;66537;52.370;4.832;2023-04-03T00:55:44;3.53;;;0.50;;
77451;SDS011;66537;52.370;4.832;2023-04-03T00:58:12;3.45;;;0.65;;
77451;SDS011;66537;52.370;4.832;2023-04-03T01:00:43;3.47;;;0.60;;
77451;SDS011;66537;52.370;4.832;2023-04-03T01:03:13;6.65;;;0.63;;
77451;SDS011;66537;52.370;4.832;2023-04-03T01:05:38;4.88;;;0.65;;
77451;SDS011;66537;52.370;4.832;2023-04-03T01:08:05;5.15;;;0.80;;
77451;SDS011;66537;52.370;4.832;2023-04-03T01:10:31;4.05;;;0.60;;
77451;SDS011;66537;52.370;4.832;2023-04-03T01:12:56;5.05;;;0.70;;
77451;SDS011;66537;52.370;4.832;2023-04-03T01:15:23;6.55;;;0.60;;
77451;SDS011;66537;52.370;4.832;2023-04-03T01:25:57;3.90;;;0.77;;
77451;SDS011;66537;52.370;4.832;2023-04-03T01:28:23;4.50;;;0.80;;
77451;SDS011;66537;52.370;4.832;2023-04-03T01:31:10;3.30;;;0.57;;
77451;SDS011;66537;52.370;4.832;2023-04-03T01:33:47;4.60;;;0.70;;
77451;SDS011;66537;52.370;4.832;2023-04-03T01:36:17;3.85;;;0.88;;
77451;SDS011;66537;52.370;4.832;2023-04-03T01:38:49;3.42;;;0.50;;
77451;SDS011;66537;52.370;4.832;2023-04-03T01:41:16;5.03;;;0.77;;
77451;SDS011;66537;52.370;4.832;2023-04-03T01:43:41;5.72;;;0.88;;
77451;SDS011;66537;52.370;4.832;2023-04-03T01:46:07;7.63;;;1.15;;
77451;SDS011;66537;52.370;4.832;2023-04-03T01:48:33;4.53;;;1.10;;
77451;SDS011;66537;52.370;4.832;2023-04-03T01:50:58;4.60;;;0.70;;
77451;SDS011;66537;52.370;4.832;2023-04-03T01:53:24;8.05;;;0.85;;
77451;SDS011;66537;52.370;4.832;2023-04-03T01:55:49;4.78;;;0.75;;
77451;SDS011;66537;52.370;4.832;2023-04-03T01:58:14;3.77;;;0.80;;
77451;SDS011;66537;52.370;4.832;2023-04-03T02:00:40;5.25;;;0.90;;
77451;SDS011;66537;52.370;4.832;2023-04-03T02:03:05;4.15;;;1.30;;
77451;SDS011;66537;52.370;4.832;2023-04-03T02:05:31;3.22;;;0.57;;
77451;SDS011;66537;52.370;4.832;2023-04-03T02:07:57;4.38;;;1.02;;
77451;SDS011;66537;52.370;4.832;2023-04-03T02:10:22;4.60;;;0.80;;
77451;SDS011;66537;52.370;4.832;2023-04-03T02:12:48;3.42;;;0.75;;
77451;SDS011;66537;52.370;4.832;2023-04-03T02:15:13;4.43;;;0.85;;
77451;SDS011;66537;52.370;4.832;2023-04-03T02:17:39;6.07;;;1.13;;
77451;SDS011;66537;52.370;4.832;2023-04-03T02:20:04;5.10;;;1.00;;
77451;SDS011;66537;52.370;4.832;2023-04-03T02:22:30;6.18;;;1.15;;
77451;SDS011;66537;52.370;4.832;2023-04-03T02:24:56;3.92;;;0.75;;
77451;SDS011;66537;52.370;4.832;2023-04-03T02:27:21;6.47;;;1.20;;
77451;SDS011;66537;52.370;4.832;2023-04-03T02:29:46;3.87;;;0.70;;
77451;SDS011;66537;52.370;4.832;2023-04-03T02:32:12;5.33;;;0.70;;
77451;SDS011;66537;52.370;4.832;2023-04-03T02:34:37;4.50;;;0.75;;
77451;SDS011;66537;52.370;4.832;2023-04-03T02:37:02;5.70;;;0.83;;
77451;SDS011;66537;52.370;4.832;2023-04-03T02:39:28;8.30;;;1.02;;
77451;SDS011;66537;52.370;4.832;2023-04-03T02:41:53;4.10;;;0.70;;
77451;SDS011;66537;52.370;4.832;2023-04-03T02:44:18;5.60;;;0.90;;
77451;SDS011;66537;52.370;4.832;2023-04-03T02:46:44;4.25;;;0.98;;
77451;SDS011;66537;52.370;4.832;2023-04-03T02:49:09;4.82;;;1.00;;
77451;SDS011;66537;52.370;4.832;2023-04-03T02:51:35;5.88;;;1.00;;
77451;SDS011;66537;52.370;4.832;2023-04-03T02:54:00;8.48;;;1.25;;
77451;SDS011;66537;52.370;4.832;2023-04-03T02:56:26;6.00;;;1.20;;
77451;SDS011;66537;52.370;4.832;2023-04-03T02:58:51;5.65;;;1.15;;
77451;SDS011;66537;52.370;4.832;2023-04-03T03:01:17;6.15;;;1.00;;
77451;SDS011;66537;52.370;4.832;2023-04-03T03:03:43;5.25;;;1.30;;
77451;SDS011;66537;52.370;4.832;2023-04-03T03:06:12;8.00;;;1.30;;
77451;SDS011;66537;52.370;4.832;2023-04-03T03:08:40;6.72;;;1.60;;
77451;SDS011;66537;52.370;4.832;2023-04-03T03:11:06;7.00;;;1.20;;
77451;SDS011;66537;52.370;4.832;2023-04-03T03:13:32;8.18;;;1.38;;
77451;SDS011;66537;52.370;4.832;2023-04-03T03:15:58;9.82;;;1.30;;
77451;SDS011;66537;52.370;4.832;2023-04-03T03:18:23;6.70;;;1.15;;
77451;SDS011;66537;52.370;4.832;2023-04-03T03:20:53;6.63;;;1.50;;
77451;SDS011;66537;52.370;4.832;2023-04-03T03:23:20;6.78;;;1.30;;
77451;SDS011;66537;52.370;4.832;2023-04-03T03:25:47;7.30;;;1.40;;
77451;SDS011;66537;52.370;4.832;2023-04-03T03:28:12;7.28;;;1.30;;
77451;SDS011;66537;52.370;4.832;2023-04-03T03:30:37;5.43;;;1.27;;
77451;SDS011;66537;52.370;4.832;2023-04-03T03:33:03;5.15;;;1.20;;
77451;SDS011;66537;52.370;4.832;2023-04-03T03:35:28;6.22;;;1.13;;
77451;SDS011;66537;52.370;4.832;2023-04-03T03:37:54;5.13;;;1.10;;
77451;SDS011;66537;52.370;4.832;2023-04-03T03:40:19;7.45;;;1.20;;
77451;SDS011;66537;52.370;4.832;2023-04-03T03:42:45;5.90;;;1.48;;
77451;SDS011;66537;52.370;4.832;2023-04-03T03:45:10;6.00;;;1.10;;
77451;SDS011;66537;52.370;4.832;2023-04-03T03:47:36;5.38;;;1.40;;
77451;SDS011;66537;52.370;4.832;2023-04-03T03:50:01;7.00;;;1.48;;
77451;SDS011;66537;52.370;4.832;2023-04-03T03:52:27;5.35;;;1.15;;
77451;SDS011;66537;52.370;4.832;2023-04-03T03:54:52;9.60;;;1.45;;
77451;SDS011;66537;52.370;4.832;2023-04-03T03:57:18;4.77;;;1.17;;
77451;SDS011;66537;52.370;4.832;2023-04-03T03:59:43;4.47;;;0.95;;
77451;SDS011;66537;52.370;4.832;2023-04-03T04:02:09;8.60;;;1.48;;
77451;SDS011;66537;52.370;4.832;2023-04-03T04:04:35;6.78;;;1.65;;
77451;SDS011;66537;52.370;4.832;2023-04-03T04:07:01;9.15;;;1.20;;
77451;SDS011;66537;52.370;4.832;2023-04-03T04:09:27;6.03;;;1.30;;
77451;SDS011;66537;52.370;4.832;2023-04-03T04:11:52;8.33;;;1.50;;
77451;SDS011;66537;52.370;4.832;2023-04-03T04:14:18;8.48;;;1.65;;
77451;SDS011;66537;52.370;4.832;2023-04-03T04:16:45;6.57;;;1.38;;
77451;SDS011;66537;52.370;4.832;2023-04-03T04:19:11;7.57;;;1.45;;
77451;SDS011;66537;52.370;4.832;2023-04-03T04:21:36;5.38;;;1.25;;
77451;SDS011;66537;52.370;4.832;2023-04-03T04:24:02;6.27;;;1.73;;
77451;SDS011;66537;52.370;4.832;2023-04-03T04:26:27;5.38;;;1.20;;
77451;SDS011;66537;52.370;4.832;2023-04-03T04:28:53;5.70;;;1.20;;
77451;SDS011;66537;52.370;4.832;2023-04-03T04:31:18;4.30;;;0.82;;
77451;SDS011;66537;52.370;4.832;2023-04-03T04:33:43;8.75;;;1.27;;
77451;SDS011;66537;52.370;4.832;2023-04-03T04:36:09;11.18;;;1.55;;
77451;SDS011;66537;52.370;4.832;2023-04-03T04:38:35;6.32;;;1.42;;
77451;SDS011;66537;52.370;4.832;2023-04-03T04:41:00;5.60;;;1.48;;
77451;SDS011;66537;52.370;4.832;2023-04-03T04:43:25;7.18;;;1.23;;
77451;SDS011;66537;52.370;4.832;2023-04-03T04:46:04;7.32;;;1.52;;
77451;SDS011;66537;52.370;4.832;2023-04-03T04:48:31;7.15;;;1.33;;
77451;SDS011;66537;52.370;4.832;2023-04-03T04:50:56;3.40;;;0.90;;
77451;SDS011;66537;52.370;4.832;2023-04-03T04:53:21;5.63;;;1.07;;
77451;SDS011;66537;52.370;4.832;2023-04-03T04:55:47;6.00;;;1.10;;
77451;SDS011;66537;52.370;4.832;2023-04-03T04:58:12;6.07;;;1.17;;
77451;SDS011;66537;52.370;4.832;2023-04-03T05:00:38;7.65;;;1.73;;
77451;SDS011;66537;52.370;4.832;2023-04-03T05:03:03;6.63;;;2.00;;
77451;SDS011;66537;52.370;4.832;2023-04-03T05:05:29;8.13;;;0.95;;
77451;SDS011;66537;52.370;4.832;2023-04-03T05:07:54;4.73;;;1.30;;
77451;SDS011;66537;52.370;4.832;2023-04-03T05:10:19;8.55;;;1.25;;
77451;SDS011;66537;52.370;4.832;2023-04-03T05:12:45;6.20;;;1.00;;
77451;SDS011;66537;52.370;4.832;2023-04-03T05:15:10;5.57;;;1.00;;
77451;SDS011;66537;52.370;4.832;2023-04-03T05:17:36;6.35;;;1.48;;
77451;SDS011;66537;52.370;4.832;2023-04-03T05:20:02;5.47;;;1.10;;
77451;SDS011;66537;52.370;4.832;2023-04-03T05:22:29;8.23;;;1.40;;
77451;SDS011;66537;52.370;4.832;2023-04-03T05:24:55;6.70;;;1.20;;
77451;SDS011;66537;52.370;4.832;2023-04-03T05:27:20;6.47;;;1.30;;
77451;SDS011;66537;52.370;4.832;2023-04-03T05:29:45;4.70;;;1.00;;
77451;SDS011;66537;52.370;4.832;2023-04-03T05:32:11;5.63;;;1.23;;
77451;SDS011;66537;52.370;4.832;2023-04-03T05:34:36;5.32;;;1.55;;
77451;SDS011;66537;52.370;4.832;2023-04-03T05:37:02;4.90;;;0.98;;
77451;SDS011;66537;52.370;4.832;2023-04-03T05:39:29;8.05;;;1.50;;
77451;SDS011;66537;52.370;4.832;2023-04-03T05:41:55;5.93;;;1.05;;
77451;SDS011;66537;52.370;4.832;2023-04-03T05:44:21;8.13;;;1.30;;
77451;SDS011;66537;52.370;4.832;2023-04-03T05:46:46;6.43;;;1.27;;
77451;SDS011;66537;52.370;4.832;2023-04-03T05:49:11;4.90;;;1.30;;
77451;SDS011;66537;52.370;4.832;2023-04-03T05:51:37;8.50;;;1.65;;
77451;SDS011;66537;52.370;4.832;2023-04-03T05:54:09;7.05;;;1.50;;
77451;SDS011;66537;52.370;4.832;2023-04-03T05:56:40;7.78;;;1.33;;
77451;SDS011;66537;52.370;4.832;2023-04-03T05:59:06;5.57;;;1.05;;
77451;SDS011;66537;52.370;4.832;2023-04-03T06:01:32;6.07;;;0.75;;
77451;SDS011;66537;52.370;4.832;2023-04-03T06:03:59;9.02;;;1.10;;
77451;SDS011;66537;52.370;4.832;2023-04-03T06:06:24;4.57;;;0.70;;
77451;SDS011;66537;52.370;4.832;2023-04-03T06:08:50;7.38;;;1.52;;
77451;SDS011;66537;52.370;4.832;2023-04-03T06:11:16;8.05;;;1.48;;
77451;SDS011;66537;52.370;4.832;2023-04-03T06:13:41;8.20;;;1.23;;
77451;SDS011;66537;52.370;4.832;2023-04-03T06:16:08;5.68;;;1.23;;
77451;SDS011;66537;52.370;4.832;2023-04-03T06:18:36;4.47;;;0.77;;
77451;SDS011;66537;52.370;4.832;2023-04-03T06:21:02;4.93;;;1.13;;
77451;SDS011;66537;52.370;4.832;2023-04-03T06:23:28;6.35;;;1.40;;
77451;SDS011;66537;52.370;4.832;2023-04-03T06:25:53;7.88;;;1.13;;
77451;SDS011;66537;52.370;4.832;2023-04-03T06:28:19;4.88;;;1.33;;
77451;SDS011;66537;52.370;4.832;2023-04-03T06:30:45;5.97;;;0.85;;
77451;SDS011;66537;52.370;4.832;2023-04-03T06:33:10;4.63;;;0.82;;
77451;SDS011;66537;52.370;4.832;2023-04-03T06:35:35;4.97;;;1.30;;
77451;SDS011;66537;52.370;4.832;2023-04-03T06:38:03;8.90;;;1.42;;
77451;SDS011;66537;52.370;4.832;2023-04-03T06:40:34;4.70;;;1.10;;
77451;SDS011;66537;52.370;4.832;2023-04-03T06:43:00;8.45;;;1.10;;
77451;SDS011;66537;52.370;4.832;2023-04-03T06:45:26;5.43;;;1.40;;
77451;SDS011;66537;52.370;4.832;2023-04-03T06:47:52;4.55;;;0.93;;
77451;SDS011;66537;52.370;4.832;2023-04-03T06:50:18;5.57;;;1.15;;
77451;SDS011;66537;52.370;4.832;2023-04-03T06:52:43;5.93;;;0.75;;
77451;SDS011;66537;52.370;4.832;2023-04-03T06:55:09;5.17;;;0.97;;
77451;SDS011;66537;52.370;4.832;2023-04-03T06:57:34;8.32;;;0.90;;
77451;SDS011;66537;52.370;4.832;2023-04-03T07:00:00;7.78;;;1.25;;
77451;SDS011;66537;52.370;4.832;2023-04-03T07:02:25;7.70;;;1.30;;
77451;SDS011;66537;52.370;4.832;2023-04-03T07:04:52;6.50;;;1.23;;
77451;SDS011;66537;52.370;4.832;2023-04-03T07:07:17;5.90;;;1.33;;
77451;SDS011;66537;52.370;4.832;2023-04-03T07:09:42;4.05;;;0.80;;
77451;SDS011;66537;52.370;4.832;2023-04-03T07:12:08;6.88;;;1.25;;
77451;SDS011;66537;52.370;4.832;2023-04-03T07:14:33;4.97;;;0.80;;
77451;SDS011;66537;52.370;4.832;2023-04-03T07:16:59;6.13;;;0.82;;
77451;SDS011;66537;52.370;4.832;2023-04-03T07:19:24;4.88;;;0.98;;
77451;SDS011;66537;52.370;4.832;2023-04-03T07:21:52;6.03;;;1.40;;
77451;SDS011;66537;52.370;4.832;2023-04-03T07:24:18;6.97;;;1.30;;
77451;SDS011;66537;52.370;4.832;2023-04-03T07:26:43;6.35;;;1.20;;
77451;SDS011;66537;52.370;4.832;2023-04-03T07:29:10;5.53;;;1.25;;
77451;SDS011;66537;52.370;4.832;2023-04-03T07:31:35;5.22;;;1.20;;
77451;SDS011;66537;52.370;4.832;2023-04-03T07:34:01;7.22;;;1.50;;
77451;SDS011;66537;52.370;4.832;2023-04-03T07:36:27;6.03;;;1.20;;
77451;SDS011;66537;52.370;4.832;2023-04-03T07:38:52;5.30;;;1.20;;
77451;SDS011;66537;52.370;4.832;2023-04-03T07:41:18;8.68;;;1.40;;
77451;SDS011;66537;52.370;4.832;2023-04-03T07:43:45;6.88;;;1.27;;
77451;SDS011;66537;52.370;4.832;2023-04-03T07:46:11;7.50;;;1.30;;
77451;SDS011;66537;52.370;4.832;2023-04-03T07:48:37;6.10;;;1.75;;
77451;SDS011;66537;52.370;4.832;2023-04-03T07:51:03;6.20;;;1.70;;
77451;SDS011;66537;52.370;4.832;2023-04-03T07:53:29;5.35;;;1.42;;
77451;SDS011;66537;52.370;4.832;2023-04-03T07:55:56;6.28;;;1.20;;
77451;SDS011;66537;52.370;4.832;2023-04-03T07:58:22;5.25;;;1.02;;
77451;SDS011;66537;52.370;4.832;2023-04-03T08:00:48;6.68;;;1.52;;
77451;SDS011;66537;52.370;4.832;2023-04-03T08:03:14;5.82;;;1.80;;
77451;SDS011;66537;52.370;4.832;2023-04-03T08:05:41;6.20;;;1.20;;
77451;SDS011;66537;52.370;4.832;2023-04-03T08:08:10;8.98;;;1.60;;
77451;SDS011;66537;52.370;4.832;2023-04-03T08:10:36;6.55;;;1.13;;
77451;SDS011;66537;52.370;4.832;2023-04-03T08:13:02;6.50;;;1.25;;
77451;SDS011;66537;52.370;4.832;2023-04-03T08:15:29;10.00;;;1.65;;
77451;SDS011;66537;52.370;4.832;2023-04-03T08:17:55;7.22;;;1.30;;
77451;SDS011;66537;52.370;4.832;2023-04-03T08:20:21;5.05;;;1.20;;
77451;SDS011;66537;52.370;4.832;2023-04-03T08:22:46;6.53;;;1.10;;
77451;SDS011;66537;52.370;4.832;2023-04-03T08:25:12;5.78;;;1.08;;
77451;SDS011;66537;52.370;4.832;2023-04-03T08:27:37;5.70;;;1.02;;
77451;SDS011;66537;52.370;4.832;2023-04-03T08:30:03;6.63;;;1.17;;
77451;SDS011;66537;52.370;4.832;2023-04-03T08:32:29;8.35;;;1.35;;
77451;SDS011;66537;52.370;4.832;2023-04-03T08:34:54;5.00;;;1.10;;
77451;SDS011;66537;52.370;4.832;2023-04-03T08:37:20;5.05;;;1.10;;
77451;SDS011;66537;52.370;4.832;2023-04-03T08:39:46;6.65;;;1.30;;
77451;SDS011;66537;52.370;4.832;2023-04-03T08:45:03;5.93;;;1.23;;
77451;SDS011;66537;52.370;4.832;2023-04-03T08:47:38;4.32;;;1.17;;
77451;SDS011;66537;52.370;4.832;2023-04-03T08:50:13;6.38;;;0.95;;
77451;SDS011;66537;52.370;4.832;2023-04-03T08:52:42;5.13;;;0.95;;
77451;SDS011;66537;52.370;4.832;2023-04-03T08:55:21;6.57;;;0.95;;
77451;SDS011;66537;52.370;4.832;2023-04-03T08:57:51;4.00;;;1.00;;
77451;SDS011;66537;52.370;4.832;2023-04-03T09:00:25;4.20;;;1.08;;
77451;SDS011;66537;52.370;4.832;2023-04-03T09:02:55;4.03;;;0.90;;
77451;SDS011;66537;52.370;4.832;2023-04-03T09:10:48;5.63;;;1.77;;
77451;SDS011;66537;52.370;4.832;2023-04-03T09:16:20;7.13;;;1.05;;
77451;SDS011;66537;52.370;4.832;2023-04-03T09:18:54;3.58;;;0.88;;
77451;SDS011;66537;52.370;4.832;2023-04-03T09:21:28;5.65;;;1.08;;
77451;SDS011;66537;52.370;4.832;2023-04-03T09:24:00;5.20;;;0.80;;
77451;SDS011;66537;52.370;4.832;2023-04-03T09:26:29;4.72;;;1.48;;
77451;SDS011;66537;52.370;4.832;2023-04-03T09:29:00;4.95;;;0.70;;
77451;SDS011;66537;52.370;4.832;2023-04-03T09:31:31;3.83;;;0.75;;
77451;SDS011;66537;52.370;4.832;2023-04-03T09:34:03;5.50;;;0.73;;
77451;SDS011;66537;52.370;4.832;2023-04-03T09:36:39;3.95;;;0.90;;
77451;SDS011;66537;52.370;4.832;2023-04-03T09:39:16;5.30;;;0.80;;
77451;SDS011;66537;52.370;4.832;2023-04-03T09:41:43;3.33;;;0.80;;
77451;SDS011;66537;52.370;4.832;2023-04-03T09:44:24;3.55;;;0.82;;
77451;SDS011;66537;52.370;4.832;2023-04-03T09:46:51;6.43;;;0.90;;
77451;SDS011;66537;52.370;4.832;2023-04-03T09:49:17;3.40;;;0.50;;
77451;SDS011;66537;52.370;4.832;2023-04-03T09:51:43;4.57;;;0.63;;
77451;SDS011;66537;52.370;4.832;2023-04-03T09:54:30;5.22;;;0.90;;
77451;SDS011;66537;52.370;4.832;2023-04-03T09:56:55;4.60;;;0.63;;
77451;SDS011;66537;52.370;4.832;2023-04-03T09:59:25;5.63;;;0.82;;
77451;SDS011;66537;52.370;4.832;2023-04-03T10:02:02;3.53;;;0.90;;
77451;SDS011;66537;52.370;4.832;2023-04-03T10:04:44;6.15;;;1.10;;
77451;SDS011;66537;52.370;4.832;2023-04-03T10:10:22;4.38;;;0.80;;
77451;SDS011;66537;52.370;4.832;2023-04-03T10:15:15;3.85;;;0.57;;
77451;SDS011;66537;52.370;4.832;2023-04-03T10:23:18;4.93;;;0.65;;
77451;SDS011;66537;52.370;4.832;2023-04-03T10:26:02;4.28;;;0.88;;
77451;SDS011;66537;52.370;4.832;2023-04-03T10:39:54;3.30;;;0.57;;
77451;SDS011;66537;52.370;4.832;2023-04-03T10:42:34;3.67;;;0.60;;
77451;SDS011;66537;52.370;4.832;2023-04-03T10:45:18;4.00;;;0.75;;
77451;SDS011;66537;52.370;4.832;2023-04-03T10:50:49;4.95;;;0.60;;
77451;SDS011;66537;52.370;4.832;2023-04-03T10:53:24;3.70;;;0.60;;
77451;SDS011;66537;52.370;4.832;2023-04-03T10:58:44;3.72;;;0.73;;
77451;SDS011;66537;52.370;4.832;2023-04-03T11:01:19;3.70;;;0.75;;
77451;SDS011;66537;52.370;4.832;2023-04-03T11:03:52;3.58;;;0.70;;
77451;SDS011;66537;52.370;4.832;2023-04-03T11:06:21;2.70;;;0.50;;
77451;SDS011;66537;52.370;4.832;2023-04-03T11:08:58;2.42;;;0.40;;
77451;SDS011;66537;52.370;4.832;2023-04-03T11:11:35;4.55;;;0.57;;
77451;SDS011;66537;52.370;4.832;2023-04-03T11:16:42;4.15;;;0.50;;
77451;SDS011;66537;52.370;4.832;2023-04-03T11:19:21;2.67;;;0.50;;
77451;SDS011;66537;52.370;4.832;2023-04-03T11:22:04;3.63;;;0.47;;
77451;SDS011;66537;52.370;4.832;2023-04-03T11:24:55;3.75;;;0.40;;
77451;SDS011;66537;52.370;4.832;2023-04-03T11:27:33;2.83;;;0.60;;
77451;SDS011;66537;52.370;4.832;2023-04-03T11:30:03;3.40;;;0.50;;
77451;SDS011;66537;52.370;4.832;2023-04-03T11:34:58;3.67;;;0.40;;
77451;SDS011;66537;52.370;4.832;2023-04-03T11:37:44;3.28;;;0.70;;
77451;SDS011;66537;52.370;4.832;2023-04-03T11:42:42;3.25;;;0.73;;
77451;SDS011;66537;52.370;4.832;2023-04-03T11:47:51;3.15;;;0.50;;
77451;SDS011;66537;52.370;4.832;2023-04-03T11:52:59;4.35;;;0.65;;
77451;SDS011;66537;52.370;4.832;2023-04-03T12:13:33;4.20;;;0.70;;
77451;SDS011;66537;52.370;4.832;2023-04-03T12:16:04;2.63;;;0.40;;
77451;SDS011;66537;52.370;4.832;2023-04-03T12:21:15;2.13;;;0.40;;
77451;SDS011;66537;52.370;4.832;2023-04-03T12:26:41;2.55;;;0.35;;
77451;SDS011;66537;52.370;4.832;2023-04-03T12:40:27;3.13;;;0.22;;
77451;SDS011;66537;52.370;4.832;2023-04-03T12:43:09;2.65;;;0.30;;
77451;SDS011;66537;52.370;4.832;2023-04-03T12:48:24;2.80;;;0.22;;
77451;SDS011;66537;52.370;4.832;2023-04-03T12:50:51;2.83;;;0.40;;
77451;SDS011;66537;52.370;4.832;2023-04-03T12:53:32;3.40;;;0.50;;
77451;SDS011;66537;52.370;4.832;2023-04-03T12:59:20;3.67;;;0.52;;
77451;SDS011;66537;52.370;4.832;2023-04-03T13:01:54;3.28;;;0.40;;
77451;SDS011;66537;52.370;4.832;2023-04-03T13:06:49;2.05;;;0.30;;
77451;SDS011;66537;52.370;4.832;2023-04-03T13:09:25;2.90;;;0.32;;
77451;SDS011;66537;52.370;4.832;2023-04-03T13:14:38;3.35;;;0.43;;
77451;SDS011;66537;52.370;4.832;2023-04-03T13:19:37;3.03;;;0.30;;
77451;SDS011;66537;52.370;4.832;2023-04-03T13:22:04;4.22;;;0.47;;
77451;SDS011;66537;52.370;4.832;2023-04-03T13:24:34;2.42;;;0.32;;
77451;SDS011;66537;52.370;4.832;2023-04-03T13:27:02;4.18;;;0.63;;
77451;SDS011;66537;52.370;4.832;2023-04-03T13:29:33;2.25;;;0.30;;
77451;SDS011;66537;52.370;4.832;2023-04-03T13:32:00;3.53;;;0.50;;
77451;SDS011;66537;52.370;4.832;2023-04-03T13:34:28;3.15;;;0.40;;
77451;SDS011;66537;52.370;4.832;2023-04-03T13:37:01;3.50;;;0.45;;
77451;SDS011;66537;52.370;4.832;2023-04-03T13:39:30;3.47;;;0.45;;
77451;SDS011;66537;52.370;4.832;2023-04-03T13:41:58;3.20;;;0.47;;
77451;SDS011;66537;52.370;4.832;2023-04-03T13:46:59;3.35;;;0.55;;
77451;SDS011;66537;52.370;4.832;2023-04-03T13:49:35;2.75;;;0.50;;
77451;SDS011;66537;52.370;4.832;2023-04-03T13:52:17;2.40;;;0.50;;
77451;SDS011;66537;52.370;4.832;2023-04-03T13:54:51;5.70;;;1.33;;
77451;SDS011;66537;52.370;4.832;2023-04-03T13:57:19;3.42;;;0.60;;
77451;SDS011;66537;52.370;4.832;2023-04-03T13:59:45;3.13;;;0.70;;
77451;SDS011;66537;52.370;4.832;2023-04-03T14:02:30;4.30;;;0.80;;
77451;SDS011;66537;52.370;4.832;2023-04-03T14:04:58;2.53;;;0.47;;
77451;SDS011;66537;52.370;4.832;2023-04-03T14:07:26;4.25;;;0.50;;
77451;SDS011;66537;52.370;4.832;2023-04-03T14:09:53;3.67;;;0.57;;
77451;SDS011;66537;52.370;4.832;2023-04-03T14:12:31;4.38;;;0.63;;
77451;SDS011;66537;52.370;4.832;2023-04-03T14:15:10;3.60;;;0.52;;
77451;SDS011;66537;52.370;4.832;2023-04-03T14:17:41;5.47;;;0.75;;
77451;SDS011;66537;52.370;4.832;2023-04-03T14:20:10;6.95;;;0.88;;
77451;SDS011;66537;52.370;4.832;2023-04-03T14:22:43;3.65;;;0.47;;
77451;SDS011;66537;52.370;4.832;2023-04-03T14:25:09;3.97;;;0.80;;
77451;SDS011;66537;52.370;4.832;2023-04-03T14:27:40;3.85;;;0.50;;
77451;SDS011;66537;52.370;4.832;2023-04-03T14:30:09;3.55;;;0.43;;
77451;SDS011;66537;52.370;4.832;2023-04-03T14:32:39;4.25;;;0.50;;
77451;SDS011;66537;52.370;4.832;2023-04-03T14:35:05;3.90;;;0.50;;
77451;SDS011;66537;52.370;4.832;2023-04-03T14:37:31;3.20;;;0.60;;
77451;SDS011;66537;52.370;4.832;2023-04-03T14:39:57;4.57;;;0.50;;
77451;SDS011;66537;52.370;4.832;2023-04-03T14:42:26;3.55;;;0.80;;
77451;SDS011;66537;52.370;4.832;2023-04-03T14:44:54;3.28;;;0.60;;
77451;SDS011;66537;52.370;4.832;2023-04-03T14:47:21;2.53;;;0.40;;
77451;SDS011;66537;52.370;4.832;2023-04-03T14:49:51;3.88;;;0.55;;
77451;SDS011;66537;52.370;4.832;2023-04-03T14:52:24;4.40;;;0.57;;
77451;SDS011;66537;52.370;4.832;2023-04-03T14:54:52;5.15;;;0.80;;
77451;SDS011;66537;52.370;4.832;2023-04-03T14:57:18;4.63;;;0.50;;
77451;SDS011;66537;52.370;4.832;2023-04-03T14:59:45;4.00;;;0.57;;
77451;SDS011;66537;52.370;4.832;2023-04-03T15:02:27;3.75;;;0.50;;
77451;SDS011;66537;52.370;4.832;2023-04-03T15:04:57;4.30;;;0.68;;
77451;SDS011;66537;52.370;4.832;2023-04-03T15:07:25;2.80;;;0.40;;
77451;SDS011;66537;52.370;4.832;2023-04-03T15:09:53;2.75;;;0.47;;
77451;SDS011;66537;52.370;4.832;2023-04-03T15:12:21;2.97;;;0.40;;
77451;SDS011;66537;52.370;4.832;2023-04-03T15:14:46;5.43;;;1.13;;
77451;SDS011;66537;52.370;4.832;2023-04-03T15:17:14;5.90;;;0.67;;
77451;SDS011;66537;52.370;4.832;2023-04-03T15:19:42;4.18;;;0.57;;
77451;SDS011;66537;52.370;4.832;2023-04-03T15:22:14;5.20;;;0.80;;
77451;SDS011;66537;52.370;4.832;2023-04-03T15:24:41;2.85;;;0.50;;
77451;SDS011;66537;52.370;4.832;2023-04-03T15:27:07;4.07;;;0.68;;
77451;SDS011;66537;52.370;4.832;2023-04-03T15:29:32;4.32;;;0.68;;
77451;SDS011;66537;52.370;4.832;2023-04-03T15:31:58;3.53;;;0.57;;
77451;SDS011;66537;52.370;4.832;2023-04-03T15:34:23;5.37;;;0.70;;
77451;SDS011;66537;52.370;4.832;2023-04-03T15:36:49;4.47;;;0.60;;
77451;SDS011;66537;52.370;4.832;2023-04-03T15:39:17;2.67;;;0.60;;
77451;SDS011;66537;52.370;4.832;2023-04-03T15:41:42;3.30;;;0.57;;
77451;SDS011;66537;52.370;4.832;2023-04-03T15:44:08;3.22;;;0.50;;
77451;SDS011;66537;52.370;4.832;2023-04-03T15:46:33;3.05;;;0.40;;
77451;SDS011;66537;52.370;4.832;2023-04-03T15:48:59;3.65;;;0.60;;
77451;SDS011;66537;52.370;4.832;2023-04-03T15:51:25;3.25;;;0.50;;
77451;SDS011;66537;52.370;4.832;2023-04-03T15:53:51;3.60;;;0.70;;
77451;SDS011;66537;52.370;4.832;2023-04-03T15:56:16;4.93;;;0.67;;
77451;SDS011;66537;52.370;4.832;2023-04-03T15:58:41;3.07;;;0.50;;
77451;SDS011;66537;52.370;4.832;2023-04-03T16:01:08;3.15;;;0.40;;
77451;SDS011;66537;52.370;4.832;2023-04-03T16:03:36;4.28;;;0.70;;
77451;SDS011;66537;52.370;4.832;2023-04-03T16:06:03;4.13;;;0.50;;
77451;SDS011;66537;52.370;4.832;2023-04-03T16:08:29;5.68;;;0.52;;
77451;SDS011;66537;52.370;4.832;2023-04-03T16:10:54;3.65;;;0.68;;
77451;SDS011;66537;52.370;4.832;2023-04-03T16:13:20;4.47;;;0.87;;
77451;SDS011;66537;52.370;4.832;2023-04-03T16:15:45;3.10;;;0.60;;
77451;SDS011;66537;52.370;4.832;2023-04-03T16:18:11;4.50;;;0.60;;
77451;SDS011;66537;52.370;4.832;2023-04-03T16:20:38;6.25;;;0.65;;
77451;SDS011;66537;52.370;4.832;2023-04-03T16:23:04;4.25;;;0.50;;
77451;SDS011;66537;52.370;4.832;2023-04-03T16:25:30;3.42;;;0.60;;
77451;SDS011;66537;52.370;4.832;2023-04-03T16:27:55;6.80;;;1.23;;
77451;SDS011;66537;52.370;4.832;2023-04-03T16:30:21;3.38;;;0.57;;
77451;SDS011;66537;52.370;4.832;2023-04-03T16:32:48;4.43;;;0.70;;
77451;SDS011;66537;52.370;4.832;2023-04-03T16:35:13;3.67;;;0.70;;
77451;SDS011;66537;52.370;4.832;2023-04-03T16:37:39;6.15;;;1.00;;
77451;SDS011;66537;52.370;4.832;2023-04-03T16:40:05;4.72;;;0.80;;
77451;SDS011;66537;52.370;4.832;2023-04-03T16:42:32;3.13;;;0.50;;
77451;SDS011;66537;52.370;4.832;2023-04-03T16:44:57;7.10;;;0.90;;